Time;durP1;ratioP1;P1;durP2;ratioP2;P2;SDS_P1;SDS_P2;PMS_P1;PMS_P2;Temp;Humidity;BMP_temperature;BMP_pressure;BME280_temperature;BME280_humidity;BME280_pressure;Samples;Min_cycle;Max_cycle;Signal;HPM_P1;HPM_P2
2024/03/23 00:02:22;;;;;;;7.27;6.57;;;;;;;;;;6071867;23;20199;-83
2024/03/23 00:04:48;;;;;;;7.17;6.47;;;;;;;;;;6071949;23;20616;-82
2024/03/23 00:07:15;;;;;;;7.47;6.73;;;;;;;;;;6071790;23;20209;-81
2024/03/23 00:09:47;;;;;;;8.90;6.73;;;;;;;;;;6095874;23;20191;-83
2024/03/23 00:12:14;;;;;;;7.37;6.67;;;;;;;;;;6095929;23;20168;-84
2024/03/23 00:14:41;;;;;;;7.43;6.70;;;;;;;;;;6047531;23;20165;-84
2024/03/23 00:17:08;;;;;;;7.50;6.63;;;;;;;;;;6072067;23;20168;-82
2024/03/23 00:19:35;;;;;;;7.53;6.83;;;;;;;;;;6096073;23;20271;-82
2024/03/23 00:22:01;;;;;;;7.53;6.73;;;;;;;;;;6095815;23;20165;-84
2024/03/23 00:24:28;;;;;;;6.80;6.20;;;;;;;;;;6071668;23;20168;-82
2024/03/23 00:26:55;;;;;;;7.90;6.87;;;;;;;;;;6095646;23;20168;-82
2024/03/23 00:29:21;;;;;;;7.20;6.40;;;;;;;;;;6093988;23;20176;-84
2024/03/23 00:31:48;;;;;;;7.13;6.43;;;;;;;;;;6094547;23;20206;-83
2024/03/23 00:34:15;;;;;;;6.60;6.00;;;;;;;;;;6094291;23;20672;-83
2024/03/23 00:36:46;;;;;;;7.37;6.60;;;;;;;;;;6094391;23;20172;-82
2024/03/23 00:39:14;;;;;;;7.10;6.40;;;;;;;;;;6069453;23;20202;-83
2024/03/23 00:41:41;;;;;;;7.90;7.00;;;;;;;;;;6070501;23;20168;-82
2024/03/23 00:44:07;;;;;;;7.37;6.50;;;;;;;;;;6094174;23;20222;-82
2024/03/23 00:46:34;;;;;;;8.57;6.80;;;;;;;;;;6094455;23;20630;-82
2024/03/23 00:49:04;;;;;;;7.53;6.83;;;;;;;;;;6094238;23;20195;-82
2024/03/23 00:51:31;;;;;;;7.97;7.17;;;;;;;;;;6094173;23;20246;-82
2024/03/23 00:53:57;;;;;;;7.47;6.77;;;;;;;;;;6093824;23;20177;-84
2024/03/23 00:56:24;;;;;;;8.60;7.80;;;;;;;;;;6094222;23;20187;-83
2024/03/23 00:58:50;;;;;;;7.70;6.90;;;;;;;;;;6070592;23;20251;-84
2024/03/23 01:01:16;;;;;;;8.47;7.33;;;;;;;;;;6094175;23;20811;-82
2024/03/23 01:03:48;;;;;;;7.50;6.70;;;;;;;;;;6093944;23;20227;-83
2024/03/23 01:06:14;;;;;;;7.60;6.90;;;;;;;;;;6070388;23;20172;-84
2024/03/23 01:08:40;;;;;;;8.33;7.03;;;;;;;;;;6046054;23;20202;-82
2024/03/23 01:11:13;;;;;;;7.60;6.87;;;;;;;;;;6094211;23;20273;-83
2024/03/23 01:13:41;;;;;;;8.17;7.40;;;;;;;;;;6093641;23;20165;-82
2024/03/23 01:16:13;;;;;;;7.40;6.70;;;;;;;;;;6093911;23;20152;-83
2024/03/23 01:18:39;;;;;;;8.80;6.93;;;;;;;;;;6069891;23;20173;-83
2024/03/23 01:21:06;;;;;;;7.43;6.73;;;;;;;;;;6094332;23;20234;-82
2024/03/23 01:23:31;;;;;;;8.23;7.30;;;;;;;;;;6070521;23;20624;-82
2024/03/23 01:25:58;;;;;;;7.87;6.70;;;;;;;;;;6069959;23;20719;-83
2024/03/23 01:28:24;;;;;;;9.50;7.57;;;;;;;;;;6069858;23;20192;-82
2024/03/23 01:30:50;;;;;;;8.17;7.37;;;;;;;;;;6093812;23;20175;-84
2024/03/23 01:33:16;;;;;;;8.00;7.20;;;;;;;;;;6045916;23;20865;-82
2024/03/23 01:35:46;;;;;;;8.83;7.60;;;;;;;;;;6070098;23;20164;-83
2024/03/23 01:38:13;;;;;;;8.27;7.47;;;;;;;;;;6093618;23;20188;-83
2024/03/23 01:40:38;;;;;;;8.03;7.23;;;;;;;;;;6069782;23;20173;-84
2024/03/23 01:43:05;;;;;;;8.43;7.63;;;;;;;;;;6094048;23;20611;-82
2024/03/23 01:45:31;;;;;;;8.23;7.17;;;;;;;;;;6093707;23;20175;-83
2024/03/23 01:47:58;;;;;;;8.10;7.30;;;;;;;;;;6070022;23;20243;-85
2024/03/23 01:50:25;;;;;;;8.33;7.53;;;;;;;;;;6093840;23;20277;-84
2024/03/23 01:52:51;;;;;;;8.43;7.63;;;;;;;;;;6093561;23;20171;-83
2024/03/23 01:55:17;;;;;;;8.20;7.40;;;;;;;;;;6093665;23;20211;-84
2024/03/23 01:57:46;;;;;;;11.00;7.97;;;;;;;;;;6093823;23;20230;-84
2024/03/23 02:00:13;;;;;;;8.40;7.50;;;;;;;;;;6069367;23;20203;-82
2024/03/23 02:02:45;;;;;;;8.53;7.63;;;;;;;;;;6093934;23;20179;-81
2024/03/23 02:05:12;;;;;;;7.63;6.93;;;;;;;;;;6069484;23;20247;-81
2024/03/23 02:07:42;;;;;;;8.43;7.07;;;;;;;;;;6093234;23;20207;-83
2024/03/23 02:10:09;;;;;;;8.07;7.30;;;;;;;;;;6093516;23;20167;-82
2024/03/23 02:12:36;;;;;;;7.83;7.03;;;;;;;;;;6093593;23;20171;-82
2024/03/23 02:15:02;;;;;;;8.10;7.30;;;;;;;;;;6117686;23;20168;-83
2024/03/23 02:17:30;;;;;;;8.03;7.23;;;;;;;;;;6093590;23;20207;-83
2024/03/23 02:19:56;;;;;;;7.93;7.13;;;;;;;;;;6069539;23;20578;-84
2024/03/23 02:22:25;;;;;;;7.57;6.87;;;;;;;;;;6093679;23;20642;-83
2024/03/23 02:24:51;;;;;;;8.00;7.20;;;;;;;;;;6093413;23;20172;-82
2024/03/23 02:27:18;;;;;;;8.77;7.00;;;;;;;;;;6069694;23;20171;-82
2024/03/23 02:29:44;;;;;;;8.30;7.50;;;;;;;;;;6093296;23;20160;-82
2024/03/23 02:32:11;;;;;;;8.00;7.30;;;;;;;;;;6092900;23;20207;-84
2024/03/23 02:34:37;;;;;;;8.43;7.43;;;;;;;;;;6093084;23;20175;-82
2024/03/23 02:37:10;;;;;;;8.43;7.00;;;;;;;;;;6093478;23;20247;-82
2024/03/23 02:39:37;;;;;;;8.17;7.00;;;;;;;;;;6093094;23;20188;-84
2024/03/23 02:42:02;;;;;;;8.60;7.80;;;;;;;;;;6069643;23;20172;-84
2024/03/23 02:44:30;;;;;;;7.90;7.10;;;;;;;;;;6093206;23;20252;-80
2024/03/23 02:46:56;;;;;;;8.17;7.37;;;;;;;;;;6069330;23;20507;-84
2024/03/23 02:49:25;;;;;;;9.73;7.70;;;;;;;;;;6092867;23;20223;-84
2024/03/23 02:51:51;;;;;;;8.53;7.73;;;;;;;;;;6045371;23;20539;-81
2024/03/23 02:54:17;;;;;;;8.23;7.43;;;;;;;;;;6092856;23;20726;-84
2024/03/23 02:56:44;;;;;;;8.27;7.40;;;;;;;;;;6117566;23;20174;-86
2024/03/23 02:59:11;;;;;;;7.63;7.00;;;;;;;;;;6069480;23;20176;-82
2024/03/23 03:01:37;;;;;;;8.77;7.87;;;;;;;;;;6092844;23;20179;-84
2024/03/23 03:04:05;;;;;;;8.53;7.73;;;;;;;;;;6092751;23;20165;-81
2024/03/23 03:06:31;;;;;;;8.90;7.87;;;;;;;;;;6093124;23;20191;-81
2024/03/23 03:08:57;;;;;;;8.73;7.50;;;;;;;;;;6116833;23;20192;-84
2024/03/23 03:11:24;;;;;;;8.13;7.33;;;;;;;;;;6093014;23;20175;-84
2024/03/23 03:13:50;;;;;;;9.30;7.33;;;;;;;;;;6069045;23;20175;-83
2024/03/23 03:16:16;;;;;;;8.00;7.23;;;;;;;;;;6093240;23;20671;-83
2024/03/23 03:18:42;;;;;;;8.37;7.23;;;;;;;;;;6068943;23;20252;-81
2024/03/23 03:21:11;;;;;;;8.37;7.53;;;;;;;;;;6093148;23;20508;-82
2024/03/23 03:23:42;;;;;;;8.27;7.30;;;;;;;;;;6045062;23;20586;-85
2024/03/23 03:26:08;;;;;;;8.97;7.20;;;;;;;;;;6093000;23;20223;-83
2024/03/23 03:28:34;;;;;;;8.10;7.33;;;;;;;;;;6092531;23;20198;-82
2024/03/23 03:31:02;;;;;;;8.97;7.17;;;;;;;;;;6092491;23;20164;-82
2024/03/23 03:33:28;;;;;;;7.60;6.87;;;;;;;;;;6092458;23;20196;-82
2024/03/23 03:35:54;;;;;;;7.93;7.17;;;;;;;;;;6068932;23;20191;-83
2024/03/23 03:38:21;;;;;;;8.23;7.33;;;;;;;;;;6093015;23;20203;-83
2024/03/23 03:40:48;;;;;;;7.93;7.13;;;;;;;;;;6045120;23;20168;-83
2024/03/23 03:43:14;;;;;;;8.53;7.50;;;;;;;;;;6093022;23;20168;-83
2024/03/23 03:45:41;;;;;;;8.53;7.20;;;;;;;;;;6068972;23;20733;-82
2024/03/23 03:48:12;;;;;;;8.67;7.57;;;;;;;;;;6068640;23;20192;-82
2024/03/23 03:50:38;;;;;;;8.67;7.53;;;;;;;;;;6068923;23;20169;-82
2024/03/23 03:53:06;;;;;;;8.13;6.97;;;;;;;;;;6068973;23;20220;-84
2024/03/23 03:55:33;;;;;;;8.57;7.63;;;;;;;;;;6069188;23;20176;-82
2024/03/23 03:57:58;;;;;;;7.80;7.10;;;;;;;;;;6068947;23;20207;-84
2024/03/23 04:00:29;;;;;;;7.57;6.57;;;;;;;;;;6069118;23;20215;-85
2024/03/23 04:02:56;;;;;;;7.10;6.40;;;;;;;;;;6092869;23;20749;-82
2024/03/23 04:05:22;;;;;;;7.07;6.43;;;;;;;;;;6070072;23;20188;-82
2024/03/23 04:07:48;;;;;;;8.00;7.17;;;;;;;;;;6070967;23;20756;-83
2024/03/23 04:10:15;;;;;;;7.20;6.50;;;;;;;;;;6118999;23;20164;-83
2024/03/23 04:12:45;;;;;;;7.80;7.00;;;;;;;;;;6095033;23;20299;-81
2024/03/23 04:15:12;;;;;;;7.63;6.90;;;;;;;;;;6094548;23;20242;-83
2024/03/23 04:17:38;;;;;;;7.63;6.93;;;;;;;;;;6094974;23;20607;-85
2024/03/23 04:20:11;;;;;;;7.50;6.80;;;;;;;;;;6070878;23;20203;-83
2024/03/23 04:22:40;;;;;;;7.97;7.13;;;;;;;;;;6070715;23;20173;-82
2024/03/23 04:25:06;;;;;;;7.80;7.10;;;;;;;;;;6094589;23;20195;-83
2024/03/23 04:27:36;;;;;;;7.90;7.20;;;;;;;;;;6094795;23;20223;-82
2024/03/23 04:30:04;;;;;;;7.60;6.90;;;;;;;;;;6094391;23;20168;-82
2024/03/23 04:32:33;;;;;;;7.20;6.60;;;;;;;;;;6094497;23;20200;-84
2024/03/23 04:35:05;;;;;;;7.13;6.43;;;;;;;;;;6094403;23;20673;-85
2024/03/23 04:37:33;;;;;;;7.70;7.00;;;;;;;;;;6094505;23;20235;-83
2024/03/23 04:40:00;;;;;;;7.77;7.07;;;;;;;;;;6046282;23;20192;-83
2024/03/23 04:42:26;;;;;;;8.13;7.10;;;;;;;;;;6070511;23;20184;-82
2024/03/23 04:44:52;;;;;;;7.57;6.80;;;;;;;;;;6094328;23;20235;-81
2024/03/23 04:47:18;;;;;;;7.40;6.70;;;;;;;;;;6094182;23;20164;-82
2024/03/23 04:49:48;;;;;;;7.43;6.73;;;;;;;;;;6070433;23;20169;-82
2024/03/23 04:52:15;;;;;;;7.40;6.70;;;;;;;;;;6094523;23;20165;-82
2024/03/23 04:54:42;;;;;;;6.93;6.30;;;;;;;;;;6118453;23;20161;-83
2024/03/23 04:57:08;;;;;;;7.30;6.60;;;;;;;;;;6070258;23;20267;-81
2024/03/23 04:59:34;;;;;;;7.43;6.73;;;;;;;;;;6093898;23;20231;-81
2024/03/23 05:02:00;;;;;;;7.27;6.57;;;;;;;;;;6069963;23;20168;-84
2024/03/23 05:04:27;;;;;;;8.30;7.50;;;;;;;;;;6118314;23;20199;-82
2024/03/23 05:06:53;;;;;;;7.43;6.60;;;;;;;;;;6094118;23;20172;-81
2024/03/23 05:09:19;;;;;;;7.13;6.10;;;;;;;;;;6093596;23;20631;-81
2024/03/23 05:11:46;;;;;;;6.80;6.20;;;;;;;;;;6094092;23;20551;-83
2024/03/23 05:14:13;;;;;;;13.63;12.30;;;;;;;;;;6045849;23;20223;-84
2024/03/23 05:16:40;;;;;;;15.70;14.00;;;;;;;;;;6093454;23;20196;-82
2024/03/23 05:19:07;;;;;;;10.77;9.50;;;;;;;;;;6093774;23;20172;-84
2024/03/23 05:21:33;;;;;;;8.60;7.23;;;;;;;;;;6093588;23;20567;-82
2024/03/23 05:24:00;;;;;;;6.37;5.83;;;;;;;;;;6117940;23;20167;-85
2024/03/23 05:26:34;;;;;;;6.60;6.00;;;;;;;;;;6071148;23;20162;-81
2024/03/23 05:29:01;;;;;;;6.40;5.90;;;;;;;;;;6093211;23;20192;-82
2024/03/23 05:31:28;;;;;;;6.10;5.50;;;;;;;;;;6048950;23;20661;-81
2024/03/23 05:33:54;;;;;;;6.00;5.40;;;;;;;;;;6098025;23;20191;-83
2024/03/23 05:36:20;;;;;;;6.33;5.77;;;;;;;;;;6098399;23;20199;-84
2024/03/23 05:38:46;;;;;;;6.83;5.70;;;;;;;;;;6098749;23;20213;-82
2024/03/23 05:41:12;;;;;;;7.10;6.50;;;;;;;;;;6098356;23;20243;-82
2024/03/23 05:43:38;;;;;;;6.37;5.87;;;;;;;;;;6098706;23;20690;-83
2024/03/23 05:46:08;;;;;;;5.60;5.10;;;;;;;;;;6098532;23;20638;-81
2024/03/23 05:48:35;;;;;;;5.70;5.20;;;;;;;;;;6098551;23;20182;-81
2024/03/23 05:51:01;;;;;;;6.33;5.73;;;;;;;;;;6098432;23;20160;-82
2024/03/23 05:53:31;;;;;;;5.73;5.20;;;;;;;;;;6098316;23;20242;-83
2024/03/23 05:56:04;;;;;;;6.07;5.47;;;;;;;;;;6098500;23;20268;-85
2024/03/23 05:58:33;;;;;;;5.93;5.40;;;;;;;;;;6098698;23;20719;-81
2024/03/23 06:01:02;;;;;;;5.13;4.70;;;;;;;;;;6098896;23;20164;-81
2024/03/23 06:03:31;;;;;;;5.30;4.90;;;;;;;;;;6099373;23;20191;-83
2024/03/23 06:05:57;;;;;;;5.20;4.70;;;;;;;;;;6075408;23;20195;-81
2024/03/23 06:08:24;;;;;;;5.13;4.63;;;;;;;;;;6099270;23;20193;-82
2024/03/23 06:10:50;;;;;;;5.40;4.90;;;;;;;;;;6099170;23;20191;-81
2024/03/23 06:13:17;;;;;;;6.23;4.53;;;;;;;;;;6075342;23;20167;-81
2024/03/23 06:15:43;;;;;;;4.70;4.30;;;;;;;;;;6099110;23;20226;-83
2024/03/23 06:18:20;;;;;;;5.03;4.37;;;;;;;;;;6099053;23;20156;-84
2024/03/23 06:20:49;;;;;;;4.53;4.13;;;;;;;;;;6099034;23;20188;-82
2024/03/23 06:23:16;;;;;;;4.53;4.17;;;;;;;;;;6074749;23;20178;-85
2024/03/23 06:25:43;;;;;;;4.60;4.20;;;;;;;;;;6098890;23;20222;-82
2024/03/23 06:28:10;;;;;;;4.57;4.17;;;;;;;;;;6074119;23;20192;-83
2024/03/23 06:30:36;;;;;;;9.83;7.93;;;;;;;;;;6074157;23;20164;-82
2024/03/23 06:33:02;;;;;;;14.73;10.70;;;;;;;;;;6092966;23;20284;-81
2024/03/23 06:35:30;;;;;;;13.60;10.03;;;;;;;;;;6092987;23;20169;-84
2024/03/23 06:37:59;;;;;;;6.50;5.90;;;;;;;;;;6093072;23;20185;-83
2024/03/23 06:40:25;;;;;;;8.27;7.47;;;;;;;;;;6068799;23;20227;-83
2024/03/23 06:42:51;;;;;;;5.77;5.23;;;;;;;;;;6069098;23;20548;-82
2024/03/23 06:45:22;;;;;;;5.10;4.60;;;;;;;;;;6093277;23;20183;-84
2024/03/23 06:47:50;;;;;;;4.70;4.30;;;;;;;;;;6093082;23;20178;-83
2024/03/23 06:50:15;;;;;;;4.60;4.20;;;;;;;;;;6044856;23;20193;-83
2024/03/23 06:52:42;;;;;;;5.17;4.57;;;;;;;;;;6069304;23;20640;-83
2024/03/23 06:55:08;;;;;;;3.97;3.60;;;;;;;;;;6092477;23;20172;-81
2024/03/23 06:57:37;;;;;;;4.67;3.40;;;;;;;;;;6092821;23;20173;-82
2024/03/23 07:00:04;;;;;;;3.87;3.30;;;;;;;;;;6092315;23;20190;-82
2024/03/23 07:02:30;;;;;;;3.57;3.27;;;;;;;;;;6093188;23;20168;-81
2024/03/23 07:04:56;;;;;;;5.20;3.63;;;;;;;;;;6092636;23;20247;-81
2024/03/23 07:07:22;;;;;;;4.57;3.67;;;;;;;;;;6092443;23;20204;-82
2024/03/23 07:09:48;;;;;;;4.33;3.60;;;;;;;;;;6092249;23;20253;-84
2024/03/23 07:12:17;;;;;;;3.50;3.20;;;;;;;;;;6090856;23;20170;-83
2024/03/23 07:14:43;;;;;;;3.50;3.20;;;;;;;;;;6091483;23;20704;-81
2024/03/23 07:17:11;;;;;;;4.00;3.57;;;;;;;;;;6091687;23;20192;-83
2024/03/23 07:19:37;;;;;;;5.07;4.10;;;;;;;;;;6067400;23;20254;-82
2024/03/23 07:22:03;;;;;;;4.57;3.77;;;;;;;;;;6091847;23;20252;-82
2024/03/23 07:24:30;;;;;;;5.93;3.80;;;;;;;;;;6091982;23;20173;-81
2024/03/23 07:26:57;;;;;;;4.23;3.83;;;;;;;;;;6091873;23;20717;-81
2024/03/23 07:29:26;;;;;;;4.53;4.13;;;;;;;;;;6091376;23;20672;-83
2024/03/23 07:31:52;;;;;;;4.70;4.03;;;;;;;;;;6076322;23;20607;-81
2024/03/23 07:34:18;;;;;;;4.70;4.20;;;;;;;;;;6096097;23;20177;-81
2024/03/23 07:36:46;;;;;;;4.23;3.83;;;;;;;;;;6096719;23;20174;-83
2024/03/23 07:39:12;;;;;;;4.93;4.53;;;;;;;;;;6097692;23;20261;-81
2024/03/23 07:41:38;;;;;;;4.53;4.03;;;;;;;;;;6074462;23;20174;-83
2024/03/23 07:44:04;;;;;;;5.70;5.20;;;;;;;;;;6098502;23;20169;-82
2024/03/23 07:46:33;;;;;;;6.00;5.40;;;;;;;;;;6098488;23;20170;-82
2024/03/23 07:48:59;;;;;;;6.93;5.47;;;;;;;;;;6072737;23;20187;-81
2024/03/23 07:51:25;;;;;;;6.33;5.80;;;;;;;;;;6097174;23;20237;-81
2024/03/23 07:53:52;;;;;;;6.97;6.37;;;;;;;;;;6073767;23;20195;-82
2024/03/23 07:56:23;;;;;;;6.90;6.30;;;;;;;;;;6073686;23;20214;-82
2024/03/23 07:58:49;;;;;;;7.00;6.40;;;;;;;;;;6098085;23;20634;-81
2024/03/23 08:01:15;;;;;;;6.40;5.80;;;;;;;;;;6097622;23;20167;-82
2024/03/23 08:03:45;;;;;;;6.73;6.10;;;;;;;;;;6097840;23;20168;-83
2024/03/23 08:06:13;;;;;;;6.90;6.20;;;;;;;;;;6098084;23;20258;-83
2024/03/23 08:08:43;;;;;;;6.80;6.20;;;;;;;;;;6074267;23;20178;-84
2024/03/23 08:11:09;;;;;;;7.07;6.40;;;;;;;;;;6073742;23;20168;-82
2024/03/23 08:13:55;;;;;;;7.27;6.57;;;;;;;;;;6102166;23;20668;-81
2024/03/23 08:16:21;;;;;;;7.20;6.50;;;;;;;;;;6074122;23;20178;-81
2024/03/23 08:18:47;;;;;;;9.33;6.40;;;;;;;;;;6097911;23;20215;-81
2024/03/23 08:21:16;;;;;;;7.20;6.50;;;;;;;;;;6075099;23;20177;-80
2024/03/23 08:23:42;;;;;;;6.60;6.00;;;;;;;;;;6097952;23;20511;-83
2024/03/23 08:26:12;;;;;;;6.30;5.60;;;;;;;;;;6098065;23;20167;-82
2024/03/23 08:28:39;;;;;;;6.17;5.57;;;;;;;;;;6073996;23;20188;-82
2024/03/23 08:31:06;;;;;;;5.97;5.47;;;;;;;;;;6097805;23;20251;-81
2024/03/23 08:33:32;;;;;;;6.63;6.00;;;;;;;;;;6093217;23;20226;-84
2024/03/23 08:36:02;;;;;;;6.77;6.17;;;;;;;;;;6091779;23;20169;-83
2024/03/23 08:38:28;;;;;;;5.90;5.40;;;;;;;;;;6117159;23;20201;-81
2024/03/23 08:41:05;;;;;;;6.33;5.73;;;;;;;;;;6092654;23;20608;-83
2024/03/23 08:43:32;;;;;;;6.80;6.07;;;;;;;;;;6093394;23;20153;-81
2024/03/23 08:46:06;;;;;;;5.77;5.23;;;;;;;;;;6093072;23;20160;-83
2024/03/23 08:48:45;;;;;;;6.67;5.87;;;;;;;;;;6069105;23;20184;-84
2024/03/23 08:51:12;;;;;;;5.73;5.23;;;;;;;;;;6091817;23;20176;-81
2024/03/23 08:53:40;;;;;;;6.40;5.80;;;;;;;;;;6092771;23;20164;-82
2024/03/23 08:56:07;;;;;;;5.70;5.20;;;;;;;;;;6092711;23;20172;-81
2024/03/23 08:58:36;;;;;;;6.07;5.47;;;;;;;;;;6093129;23;20303;-81
2024/03/23 09:01:09;;;;;;;6.07;5.47;;;;;;;;;;6093143;23;20168;-82
2024/03/23 09:03:35;;;;;;;5.17;4.77;;;;;;;;;;6092960;23;20165;-82
2024/03/23 09:06:02;;;;;;;5.87;4.40;;;;;;;;;;6092903;23;20248;-80
2024/03/23 09:08:29;;;;;;;5.23;4.20;;;;;;;;;;6117600;23;20219;-80
2024/03/23 09:10:55;;;;;;;4.60;4.10;;;;;;;;;;6093086;23;20167;-81
2024/03/23 09:13:21;;;;;;;4.50;4.10;;;;;;;;;;6093006;23;20666;-81
2024/03/23 09:15:51;;;;;;;4.23;3.83;;;;;;;;;;6092646;23;20176;-82
2024/03/23 09:18:18;;;;;;;3.90;3.50;;;;;;;;;;6092477;23;20183;-82
2024/03/23 09:20:44;;;;;;;5.87;3.77;;;;;;;;;;6091624;23;20193;-81
2024/03/23 09:23:09;;;;;;;3.70;3.40;;;;;;;;;;6092160;23;20168;-81
2024/03/23 09:25:36;;;;;;;4.50;3.10;;;;;;;;;;6067957;23;20169;-80
2024/03/23 09:28:02;;;;;;;3.07;2.80;;;;;;;;;;6092126;23;20189;-81
2024/03/23 09:30:28;;;;;;;3.00;2.80;;;;;;;;;;6091842;23;20647;-81
2024/03/23 09:32:54;;;;;;;3.10;2.70;;;;;;;;;;6116297;23;20241;-80
2024/03/23 09:35:20;;;;;;;3.40;3.00;;;;;;;;;;6090682;23;20169;-80
2024/03/23 09:37:47;;;;;;;2.70;2.50;;;;;;;;;;6091660;23;20653;-81
2024/03/23 09:40:15;;;;;;;3.40;2.50;;;;;;;;;;6090179;23;20187;-81
2024/03/23 09:42:46;;;;;;;2.70;2.50;;;;;;;;;;6091110;23;20165;-80
2024/03/23 09:45:16;;;;;;;3.10;2.30;;;;;;;;;;6090905;23;20171;-80
2024/03/23 09:47:46;;;;;;;1.90;1.70;;;;;;;;;;6089547;23;20186;-82
2024/03/23 09:50:13;;;;;;;2.17;1.70;;;;;;;;;;6092172;23;20312;-80
2024/03/23 09:52:41;;;;;;;3.13;1.67;;;;;;;;;;6088249;23;20170;-81
2024/03/23 09:55:08;;;;;;;1.50;1.40;;;;;;;;;;6088414;23;20258;-81
2024/03/23 09:57:34;;;;;;;1.83;1.50;;;;;;;;;;6115818;23;20174;-82
2024/03/23 10:00:00;;;;;;;2.47;1.60;;;;;;;;;;6091899;23;20253;-80
2024/03/23 10:02:28;;;;;;;2.13;1.43;;;;;;;;;;6091992;23;20222;-80
2024/03/23 10:04:53;;;;;;;1.77;1.52;;;;;;;;;;6092016;23;20174;-81
2024/03/23 10:07:23;;;;;;;1.50;1.40;;;;;;;;;;6092101;23;20168;-80
2024/03/23 10:09:52;;;;;;;1.60;1.50;;;;;;;;;;6091962;23;20192;-80
2024/03/23 10:12:20;;;;;;;1.52;1.20;;;;;;;;;;6116017;23;20172;-80
2024/03/23 10:14:48;;;;;;;1.33;1.00;;;;;;;;;;6092093;23;20707;-80
2024/03/23 10:17:23;;;;;;;1.20;0.98;;;;;;;;;;6068231;23;20178;-80
2024/03/23 10:19:56;;;;;;;1.17;1.08;;;;;;;;;;6092357;23;20157;-80
2024/03/23 10:22:29;;;;;;;1.65;1.30;;;;;;;;;;6068671;23;20172;-79
2024/03/23 10:25:07;;;;;;;2.05;1.20;;;;;;;;;;6092295;23;20157;-80
2024/03/23 10:27:36;;;;;;;1.67;1.20;;;;;;;;;;6116669;23;20168;-82
2024/03/23 10:30:16;;;;;;;1.75;1.10;;;;;;;;;;6091749;23;20164;-79
2024/03/23 10:32:49;;;;;;;1.60;1.40;;;;;;;;;;6091785;23;20682;-81
2024/03/23 10:35:16;;;;;;;2.22;1.20;;;;;;;;;;6067566;23;20165;-79
2024/03/23 10:37:42;;;;;;;2.55;1.10;;;;;;;;;;6091827;23;20272;-80
2024/03/23 10:40:11;;;;;;;1.20;1.10;;;;;;;;;;6091506;23;20214;-82
2024/03/23 10:42:37;;;;;;;1.75;1.33;;;;;;;;;;6091656;23;20168;-80
2024/03/23 10:45:04;;;;;;;1.17;1.02;;;;;;;;;;6091661;23;20177;-78
2024/03/23 10:47:30;;;;;;;2.42;1.48;;;;;;;;;;6067706;23;20168;-83
2024/03/23 10:49:56;;;;;;;1.90;1.40;;;;;;;;;;6091547;23;20225;-79
2024/03/23 10:52:22;;;;;;;1.50;1.10;;;;;;;;;;6091864;23;20163;-80
2024/03/23 10:54:51;;;;;;;1.42;1.13;;;;;;;;;;6068240;23;20192;-81
2024/03/23 10:57:20;;;;;;;1.45;1.35;;;;;;;;;;6092148;23;20171;-82
2024/03/23 10:59:46;;;;;;;3.72;1.10;;;;;;;;;;6091626;23;20172;-80
2024/03/23 11:02:21;;;;;;;1.63;1.20;;;;;;;;;;6092297;23;20183;-81
2024/03/23 11:04:49;;;;;;;1.70;1.20;;;;;;;;;;6092306;23;20175;-79
2024/03/23 11:07:24;;;;;;;2.08;1.20;;;;;;;;;;6091936;23;20198;-81
2024/03/23 11:09:52;;;;;;;1.85;1.08;;;;;;;;;;6091602;23;20194;-81
2024/03/23 11:12:24;;;;;;;2.88;1.50;;;;;;;;;;6091918;23;20219;-82
2024/03/23 11:14:50;;;;;;;1.60;1.10;;;;;;;;;;6091446;23;20219;-82
2024/03/23 11:17:20;;;;;;;1.10;1.00;;;;;;;;;;6091706;23;20503;-79
2024/03/23 11:19:56;;;;;;;2.38;1.10;;;;;;;;;;6091717;23;20164;-80
2024/03/23 11:22:41;;;;;;;1.40;1.02;;;;;;;;;;6092075;23;20145;-80
2024/03/23 11:25:17;;;;;;;1.00;0.90;;;;;;;;;;6091724;23;20629;-81
2024/03/23 11:27:46;;;;;;;1.67;1.00;;;;;;;;;;6091851;23;20271;-80
2024/03/23 11:30:19;;;;;;;1.33;1.00;;;;;;;;;;6091441;23;20164;-81
2024/03/23 11:32:50;;;;;;;1.35;1.13;;;;;;;;;;6091777;23;20191;-79
2024/03/23 11:35:30;;;;;;;2.42;1.65;;;;;;;;;;6091619;23;20192;-80
2024/03/23 11:38:07;;;;;;;2.60;2.17;;;;;;;;;;6091561;23;20642;-79
2024/03/23 11:40:35;;;;;;;2.17;1.90;;;;;;;;;;6043846;23;20185;-80
2024/03/23 11:43:03;;;;;;;3.55;2.28;;;;;;;;;;6115869;23;20202;-80
2024/03/23 11:45:29;;;;;;;3.17;2.67;;;;;;;;;;6091101;23;20191;-80
2024/03/23 11:48:04;;;;;;;3.45;2.42;;;;;;;;;;6115869;23;20168;-80
2024/03/23 11:50:31;;;;;;;2.70;2.50;;;;;;;;;;6067606;23;20177;-80
2024/03/23 11:53:06;;;;;;;3.28;2.92;;;;;;;;;;6091559;23;20251;-81
2024/03/23 11:55:41;;;;;;;3.15;2.70;;;;;;;;;;6091533;23;20197;-79
2024/03/23 11:58:08;;;;;;;2.78;2.58;;;;;;;;;;6091356;23;20617;-79
2024/03/23 12:00:38;;;;;;;3.00;2.67;;;;;;;;;;6091075;23;20189;-79
2024/03/23 12:03:11;;;;;;;3.00;2.33;;;;;;;;;;6091241;23;20168;-80
2024/03/23 12:05:38;;;;;;;3.10;2.80;;;;;;;;;;6091473;23;20255;-80
2024/03/23 12:08:24;;;;;;;4.25;3.20;;;;;;;;;;6091515;23;20201;-81
2024/03/23 12:10:50;;;;;;;3.13;2.85;;;;;;;;;;6115514;23;20219;-80
2024/03/23 12:13:22;;;;;;;3.17;2.88;;;;;;;;;;6091182;23;20235;-80
2024/03/23 12:15:50;;;;;;;2.97;2.72;;;;;;;;;;6067382;23;20184;-81
2024/03/23 12:18:16;;;;;;;3.20;2.80;;;;;;;;;;6067277;23;20200;-79
2024/03/23 12:20:47;;;;;;;3.22;2.92;;;;;;;;;;6067989;23;20169;-80
2024/03/23 12:23:14;;;;;;;3.78;2.80;;;;;;;;;;6091228;23;20165;-79
2024/03/23 12:25:44;;;;;;;3.28;2.97;;;;;;;;;;6065245;23;20175;-81
2024/03/23 12:28:11;;;;;;;4.18;3.05;;;;;;;;;;6069225;23;20250;-81
2024/03/23 12:30:39;;;;;;;3.20;2.90;;;;;;;;;;6116945;23;20156;-80
2024/03/23 12:33:06;;;;;;;3.53;3.03;;;;;;;;;;6069051;23;20204;-81
2024/03/23 12:35:31;;;;;;;3.70;3.40;;;;;;;;;;6069208;23;20688;-80
2024/03/23 12:38:01;;;;;;;3.50;3.15;;;;;;;;;;6116588;23;20218;-80
2024/03/23 12:40:29;;;;;;;3.25;2.95;;;;;;;;;;6093049;23;20301;-81
2024/03/23 12:42:58;;;;;;;4.07;3.08;;;;;;;;;;6117273;23;20169;-82
2024/03/23 12:45:25;;;;;;;3.10;2.90;;;;;;;;;;6092743;23;20172;-79
2024/03/23 12:47:54;;;;;;;4.20;2.95;;;;;;;;;;6092502;23;20223;-80
2024/03/23 12:50:21;;;;;;;3.35;3.05;;;;;;;;;;6068444;23;20495;-81
2024/03/23 12:52:47;;;;;;;2.17;2.03;;;;;;;;;;6092538;23;20172;-79
2024/03/23 12:55:16;;;;;;;2.83;2.30;;;;;;;;;;6092394;23;20180;-79
2024/03/23 12:57:46;;;;;;;2.40;2.20;;;;;;;;;;6092741;23;20160;-80
2024/03/23 13:00:13;;;;;;;2.35;1.63;;;;;;;;;;6092542;23;20217;-79
2024/03/23 13:02:40;;;;;;;1.70;1.60;;;;;;;;;;6092774;23;20171;-80
2024/03/23 13:05:08;;;;;;;1.90;1.80;;;;;;;;;;6092080;23;20280;-79
2024/03/23 13:07:42;;;;;;;4.65;1.80;;;;;;;;;;6092008;23;20244;-81
2024/03/23 13:10:10;;;;;;;5.07;1.27;;;;;;;;;;6092534;23;20188;-80
2024/03/23 13:12:36;;;;;;;1.85;1.10;;;;;;;;;;6091620;23;20683;-84
2024/03/23 13:15:02;;;;;;;4.03;1.20;;;;;;;;;;6068029;23;20809;-83
2024/03/23 13:17:29;;;;;;;2.47;1.10;;;;;;;;;;6091324;23;20178;-81
2024/03/23 13:19:58;;;;;;;3.47;0.93;;;;;;;;;;6087524;23;20173;-82
2024/03/23 13:22:24;;;;;;;2.87;0.83;;;;;;;;;;6064867;23;20187;-82
2024/03/23 13:24:50;;;;;;;0.97;0.80;;;;;;;;;;6092226;23;20170;-84
2024/03/23 13:27:24;;;;;;;1.33;0.70;;;;;;;;;;6093510;23;20183;-81
2024/03/23 13:29:51;;;;;;;1.03;0.60;;;;;;;;;;6092743;23;20271;-83
2024/03/23 13:32:17;;;;;;;2.83;0.80;;;;;;;;;;6068978;23;20200;-81
2024/03/23 13:34:50;;;;;;;2.33;0.70;;;;;;;;;;6069024;23;20216;-81
2024/03/23 13:37:16;;;;;;;1.90;0.60;;;;;;;;;;6093051;23;20192;-81
2024/03/23 13:39:42;;;;;;;0.70;0.50;;;;;;;;;;6093227;23;20666;-82
2024/03/23 13:42:09;;;;;;;1.90;0.67;;;;;;;;;;6092998;23;20175;-83
2024/03/23 13:44:38;;;;;;;1.03;0.70;;;;;;;;;;6092922;23;20169;-84
2024/03/23 13:47:04;;;;;;;1.03;0.60;;;;;;;;;;6092658;23;20211;-81
2024/03/23 13:49:30;;;;;;;0.73;0.67;;;;;;;;;;6114303;23;20635;-82
2024/03/23 13:52:00;;;;;;;0.50;0.50;;;;;;;;;;6091753;23;20168;-82
2024/03/23 13:54:26;;;;;;;0.57;0.50;;;;;;;;;;6091549;23;20174;-81
2024/03/23 13:56:54;;;;;;;0.50;0.50;;;;;;;;;;6092254;23;20168;-83
2024/03/23 13:59:21;;;;;;;15.60;3.37;;;;;;;;;;6092920;23;20220;-82
2024/03/23 14:01:50;;;;;;;1.10;0.57;;;;;;;;;;6092313;23;20264;-82
2024/03/23 14:04:17;;;;;;;0.50;0.50;;;;;;;;;;6092501;23;20243;-81
2024/03/23 14:06:46;;;;;;;1.70;0.50;;;;;;;;;;6092102;23;20682;-80
2024/03/23 14:09:20;;;;;;;0.73;0.70;;;;;;;;;;6092371;23;20210;-82
2024/03/23 14:11:47;;;;;;;0.90;0.70;;;;;;;;;;6092358;23;20167;-82
2024/03/23 14:14:16;;;;;;;0.70;0.60;;;;;;;;;;6092394;23;20195;-82
2024/03/23 14:16:42;;;;;;;1.00;0.70;;;;;;;;;;6092179;23;20243;-82
2024/03/23 14:19:08;;;;;;;0.50;0.50;;;;;;;;;;6068306;23;20181;-81
2024/03/23 14:21:35;;;;;;;1.27;0.60;;;;;;;;;;6091809;23;20185;-82
2024/03/23 14:24:01;;;;;;;0.50;0.50;;;;;;;;;;6092332;23;20192;-83
2024/03/23 14:26:27;;;;;;;1.07;0.67;;;;;;;;;;6092084;23;20612;-82
2024/03/23 14:28:53;;;;;;;0.47;0.40;;;;;;;;;;6116778;23;20649;-84
2024/03/23 14:31:19;;;;;;;1.00;0.67;;;;;;;;;;6093811;23;20179;-83
2024/03/23 14:33:46;;;;;;;0.93;0.60;;;;;;;;;;6097667;23;20166;-83
2024/03/23 14:36:13;;;;;;;0.60;0.60;;;;;;;;;;6097516;23;20175;-84
2024/03/23 14:38:39;;;;;;;1.23;0.60;;;;;;;;;;6097704;23;20300;-82
2024/03/23 14:41:08;;;;;;;0.53;0.53;;;;;;;;;;6097963;23;20162;-83
2024/03/23 14:43:34;;;;;;;1.33;0.70;;;;;;;;;;6073250;23;20270;-83
2024/03/23 14:46:06;;;;;;;0.60;0.50;;;;;;;;;;6096612;23;20174;-84
2024/03/23 14:48:32;;;;;;;0.80;0.60;;;;;;;;;;6097904;23;20195;-82